Swakopmund, Namibia
Current Conditions -  °F | °C
As of 7:00 PM on Thursday 27 Nov 2014 (Local Time) from FYWE Reporting Station
Clear Clear  
Wind Chill: 73°   Ceiling: Unl
Heat Index: 73°   Visibility: 6mi
Dew Point:   Wind: 6mph
Humidity: 8%   Direction: 230°SW
Pressure: 30.09"   Gusts: NA
Location:  22.67°S, 14.52°E
Report Text: FYWE 271800Z 23005KT CAVOK 23/M14 Q1019
Loading
Personal Weather Stations






























Interactive Weather Map New forecast layout! Learn more

10-Day Weather Forecast

Advertisements
Track Severe Weather on mobile